createdAt,value
2019-03-29T00:00:24.560Z,100.00
2019-03-29T00:03:32.316Z,100.00
2019-03-29T00:06:40.372Z,100.00
2019-03-29T00:09:48.121Z,100.00
2019-03-29T00:12:57.039Z,100.00
2019-03-29T00:16:14.632Z,100.00
2019-03-29T00:19:20.617Z,100.00
2019-03-29T00:22:28.280Z,100.00
2019-03-29T00:25:36.015Z,100.00
2019-03-29T00:28:52.980Z,100.00
2019-03-29T00:32:00.805Z,100.00
2019-03-29T00:35:08.712Z,100.00
2019-03-29T00:38:25.721Z,100.00
2019-03-29T00:41:33.667Z,100.00
2019-03-29T00:44:41.892Z,100.00
2019-03-29T00:47:49.553Z,100.00
2019-03-29T00:50:58.325Z,100.00
2019-03-29T00:54:06.718Z,100.00
2019-03-29T00:57:14.396Z,100.00
2019-03-29T01:00:22.444Z,100.00
2019-03-29T01:03:39.313Z,100.00
2019-03-29T01:06:56.105Z,100.00
2019-03-29T01:10:13.081Z,100.00
2019-03-29T01:13:21.147Z,100.00
2019-03-29T01:16:28.931Z,100.00
2019-03-29T01:19:45.820Z,100.00
2019-03-29T01:22:53.656Z,100.00
2019-03-29T01:26:01.407Z,100.00
2019-03-29T01:29:18.937Z,100.00
2019-03-29T01:32:26.763Z,100.00
2019-03-29T01:35:34.588Z,100.00
2019-03-29T01:38:42.987Z,100.00
2019-03-29T01:42:00.196Z,100.00
2019-03-29T01:45:09.154Z,100.00
2019-03-29T01:48:16.847Z,100.00
2019-03-29T01:51:24.631Z,100.00
2019-03-29T01:54:41.672Z,100.00
2019-03-29T01:57:49.507Z,100.00
2019-03-29T02:00:57.257Z,100.00
2019-03-29T02:04:06.044Z,100.00
2019-03-29T02:07:23.417Z,100.00
2019-03-29T02:10:31.330Z,100.00
2019-03-29T02:13:39.269Z,100.00
2019-03-29T02:16:56.267Z,100.00
2019-03-29T02:20:04.342Z,100.00
2019-03-29T02:23:12.097Z,100.00
2019-03-29T02:26:19.282Z,100.00
2019-03-29T02:29:27.041Z,100.00
2019-03-29T02:32:35.016Z,100.00
2019-03-29T02:35:52.179Z,100.00
2019-03-29T02:39:00.102Z,100.00
2019-03-29T02:42:07.831Z,100.00
2019-03-29T02:45:25.326Z,100.00
2019-03-29T02:48:33.232Z,100.00
2019-03-29T02:51:41.021Z,100.00
2019-03-29T02:54:48.797Z,100.00
2019-03-29T02:57:56.548Z,100.00
2019-03-29T03:01:13.669Z,100.00
2019-03-29T03:04:21.510Z,100.00
2019-03-29T03:07:29.385Z,100.00
2019-03-29T03:10:46.448Z,100.00
2019-03-29T03:13:54.107Z,100.00
2019-03-29T03:17:02.201Z,100.00
2019-03-29T03:20:20.150Z,100.00
2019-03-29T03:23:28.091Z,100.00
2019-03-29T03:26:36.090Z,100.00
2019-03-29T03:29:42.782Z,100.00
2019-03-29T03:32:50.635Z,100.00
2019-03-29T03:35:58.450Z,100.00
2019-03-29T03:39:30.555Z,100.00
2019-03-29T03:42:25.287Z,100.00
2019-03-29T03:45:42.554Z,100.00
2019-03-29T03:48:50.424Z,100.00
2019-03-29T03:51:58.372Z,100.00
2019-03-29T03:55:15.224Z,100.00
2019-03-29T03:58:23.305Z,100.00
2019-03-29T04:01:31.267Z,100.00
2019-03-29T04:04:39.038Z,100.00
2019-03-29T04:07:46.690Z,100.00
2019-03-29T04:10:54.546Z,100.00
2019-03-29T04:14:02.199Z,100.00
2019-03-29T04:17:09.886Z,100.00
2019-03-29T04:20:17.707Z,100.00
2019-03-29T04:23:25.417Z,100.00
2019-03-29T04:26:33.343Z,100.00
2019-03-29T04:29:50.330Z,100.00
2019-03-29T04:33:11.101Z,100.00
2019-03-29T04:36:17.035Z,100.00
2019-03-29T04:39:24.744Z,100.00
2019-03-29T04:42:41.738Z,100.00
2019-03-29T04:45:59.043Z,100.00
2019-03-29T04:49:06.867Z,100.00
2019-03-29T04:52:14.535Z,100.00
2019-03-29T04:55:31.787Z,100.00
2019-03-29T04:58:39.443Z,100.00
2019-03-29T05:01:47.443Z,100.00
2019-03-29T05:04:55.279Z,100.00
2019-03-29T05:08:03.199Z,100.00
2019-03-29T05:11:20.309Z,100.00
2019-03-29T05:14:28.051Z,100.00
2019-03-29T05:17:35.954Z,100.00
2019-03-29T05:20:52.901Z,100.00
2019-03-29T05:24:09.955Z,100.00
2019-03-29T05:27:17.965Z,100.00
2019-03-29T05:30:25.849Z,100.00
2019-03-29T05:33:33.772Z,100.00
2019-03-29T05:36:41.783Z,100.00
2019-03-29T05:39:49.682Z,100.00
2019-03-29T05:42:57.432Z,100.00
2019-03-29T05:46:14.557Z,100.00
2019-03-29T05:49:22.335Z,100.00
2019-03-29T05:52:30.128Z,100.00
2019-03-29T05:55:48.455Z,100.00
2019-03-29T05:59:05.802Z,100.00
2019-03-29T06:02:13.617Z,100.00
2019-03-29T06:05:21.535Z,100.00
2019-03-29T06:08:44.570Z,100.00
2019-03-29T06:11:52.384Z,100.00
2019-03-29T06:15:00.389Z,100.00
2019-03-29T06:18:17.289Z,100.00
2019-03-29T06:21:25.252Z,100.00
2019-03-29T06:24:33.000Z,100.00
2019-03-29T06:27:56.479Z,100.00
2019-03-29T06:31:04.266Z,100.00
2019-03-29T06:34:12.331Z,100.00
2019-03-29T06:37:20.916Z,100.00
2019-03-29T06:40:28.681Z,100.00
2019-03-29T06:43:36.513Z,100.00
2019-03-29T06:46:53.638Z,100.00
2019-03-29T06:50:01.387Z,100.00
2019-03-29T06:53:09.428Z,100.00
2019-03-29T06:56:26.389Z,100.00
2019-03-29T06:59:34.240Z,100.00
2019-03-29T07:02:41.921Z,100.00
2019-03-29T07:05:59.214Z,100.00
2019-03-29T07:09:07.736Z,100.00
2019-03-29T07:12:24.894Z,100.00
2019-03-29T07:15:32.641Z,100.00
2019-03-29T07:18:40.452Z,100.00
2019-03-29T07:21:57.576Z,100.00
2019-03-29T07:25:05.903Z,100.00
2019-03-29T07:28:13.477Z,100.00
2019-03-29T07:31:30.283Z,100.00
2019-03-29T07:34:38.128Z,100.00
2019-03-29T07:37:46.082Z,100.00
2019-03-29T07:41:03.153Z,100.00
2019-03-29T07:44:10.964Z,100.00
2019-03-29T07:47:18.899Z,100.00
2019-03-29T07:50:35.972Z,100.00
2019-03-29T07:53:45.114Z,100.00
2019-03-29T07:56:52.970Z,100.00
2019-03-29T08:00:00.754Z,100.00
2019-03-29T08:03:08.484Z,100.00
2019-03-29T08:06:16.255Z,100.00
2019-03-29T08:09:24.122Z,100.00
2019-03-29T08:12:32.088Z,100.00
2019-03-29T08:15:38.351Z,100.00
2019-03-29T08:18:46.114Z,100.00
2019-03-29T08:21:53.845Z,100.00
2019-03-29T08:25:01.524Z,100.00
2019-03-29T08:28:09.517Z,100.00
2019-03-29T08:31:17.310Z,100.00
2019-03-29T08:34:36.003Z,100.00
2019-03-29T08:37:44.052Z,100.00
2019-03-29T08:40:51.911Z,100.00
2019-03-29T08:43:59.744Z,100.00
2019-03-29T08:47:07.679Z,100.00
2019-03-29T08:50:24.802Z,100.00
2019-03-29T08:53:32.674Z,100.00
2019-03-29T08:56:40.625Z,100.00
2019-03-29T08:59:57.633Z,100.00
2019-03-29T09:03:05.682Z,100.00
2019-03-29T09:06:13.530Z,100.00
2019-03-29T09:09:21.659Z,100.00
2019-03-29T09:12:29.389Z,100.00
2019-03-29T09:15:37.348Z,100.00
2019-03-29T09:18:45.098Z,100.00
2019-03-29T09:22:02.278Z,100.00
2019-03-29T09:25:10.190Z,100.00
2019-03-29T09:28:18.063Z,100.00
2019-03-29T09:31:35.054Z,100.00
2019-03-29T09:34:42.965Z,100.00
2019-03-29T09:37:50.708Z,100.00
2019-03-29T09:41:07.838Z,100.00
2019-03-29T09:44:15.773Z,100.00
2019-03-29T09:47:23.448Z,100.00
2019-03-29T09:50:40.697Z,100.00
2019-03-29T09:53:48.400Z,100.00
2019-03-29T09:56:56.518Z,100.00
2019-03-29T10:00:17.999Z,100.00
2019-03-29T10:03:14.361Z,100.00
2019-03-29T10:06:22.209Z,100.00
2019-03-29T10:09:30.101Z,100.00
2019-03-29T10:12:47.011Z,100.00
2019-03-29T10:15:54.897Z,100.00
2019-03-29T10:19:02.824Z,100.00
2019-03-29T10:22:20.007Z,100.00
2019-03-29T10:25:27.804Z,100.00
2019-03-29T10:28:35.564Z,100.00
2019-03-29T10:31:52.582Z,100.00
2019-03-29T10:35:00.448Z,100.00
2019-03-29T10:38:08.322Z,100.00
2019-03-29T10:41:25.270Z,100.00
2019-03-29T10:44:42.063Z,100.00
2019-03-29T10:47:50.004Z,100.00
2019-03-29T10:50:57.809Z,100.00
2019-03-29T10:54:14.966Z,100.00
2019-03-29T10:57:22.746Z,100.00
2019-03-29T11:00:38.213Z,100.00
2019-03-29T11:03:46.091Z,100.00
2019-03-29T11:06:53.861Z,100.00
2019-03-29T11:10:01.791Z,100.00
2019-03-29T11:13:18.869Z,100.00
2019-03-29T11:16:26.812Z,100.00
2019-03-29T11:19:34.606Z,100.00
2019-03-29T11:22:51.795Z,100.00
2019-03-29T11:25:59.717Z,100.00
2019-03-29T11:29:07.393Z,100.00
2019-03-29T11:32:24.655Z,100.00
2019-03-29T11:35:32.498Z,100.00
2019-03-29T11:38:40.448Z,100.00
2019-03-29T11:41:57.482Z,100.00
2019-03-29T11:45:06.271Z,100.00
2019-03-29T11:48:14.097Z,100.00
2019-03-29T11:51:21.977Z,100.00
2019-03-29T11:54:39.012Z,100.00
2019-03-29T11:57:46.959Z,100.00
2019-03-29T12:00:55.046Z,100.00
2019-03-29T12:04:02.793Z,100.00
2019-03-29T12:07:10.635Z,100.00
2019-03-29T12:10:27.728Z,100.00
2019-03-29T12:13:41.414Z,100.00
2019-03-29T12:16:45.148Z,100.00
2019-03-29T12:20:08.372Z,100.00
2019-03-29T12:23:16.364Z,100.00
2019-03-29T12:26:24.240Z,100.00
2019-03-29T12:29:32.319Z,100.00
2019-03-29T12:32:40.247Z,100.00
2019-03-29T12:35:46.534Z,94.89
2019-03-29T12:38:54.230Z,100.00
2019-03-29T12:42:11.359Z,94.50
2019-03-29T12:45:19.128Z,93.40
2019-03-29T12:48:27.113Z,97.64
2019-03-29T12:51:46.653Z,88.35
2019-03-29T12:54:53.892Z,85.94
2019-03-29T12:58:01.562Z,78.99
2019-03-29T13:01:18.608Z,85.75
2019-03-29T13:04:26.480Z,79.97
2019-03-29T13:07:34.693Z,81.98
2019-03-29T13:10:42.829Z,72.99
2019-03-29T13:13:50.568Z,82.27
2019-03-29T13:16:56.637Z,66.49
2019-03-29T13:20:04.907Z,70.56
2019-03-29T13:23:12.865Z,73.54
2019-03-29T13:26:20.777Z,66.07
2019-03-29T13:29:37.849Z,66.40
2019-03-29T13:32:45.764Z,71.68
2019-03-29T13:35:53.617Z,78.66
2019-03-29T13:39:10.725Z,70.72
2019-03-29T13:42:18.490Z,73.62
2019-03-29T13:45:27.945Z,75.71
2019-03-29T13:48:45.009Z,68.17
2019-03-29T13:52:02.287Z,67.80
2019-03-29T13:55:10.885Z,64.24
2019-03-29T13:58:18.834Z,68.64
2019-03-29T14:01:25.582Z,66.13
2019-03-29T14:04:33.327Z,72.59
2019-03-29T14:07:41.087Z,71.20
2019-03-29T14:10:58.350Z,66.69
2019-03-29T14:14:06.139Z,81.83
2019-03-29T14:17:14.127Z,96.07
2019-03-29T14:20:32.352Z,66.87
2019-03-29T14:23:39.395Z,70.55
2019-03-29T14:26:56.408Z,75.71
2019-03-29T14:30:13.636Z,67.67
2019-03-29T14:33:21.638Z,80.78
2019-03-29T14:36:29.307Z,97.35
2019-03-29T14:39:37.406Z,72.05
2019-03-29T14:42:45.132Z,73.71
2019-03-29T14:46:02.163Z,73.70
2019-03-29T14:49:09.992Z,70.86
2019-03-29T14:52:17.740Z,96.29
2019-03-29T14:55:34.983Z,82.20
2019-03-29T14:58:42.935Z,90.69
2019-03-29T15:01:50.989Z,75.03
2019-03-29T15:04:58.841Z,68.20
2019-03-29T15:08:06.528Z,73.47
2019-03-29T15:11:23.828Z,89.18
2019-03-29T15:14:31.778Z,89.21
2019-03-29T15:17:39.620Z,73.31
2019-03-29T15:20:56.686Z,72.04
2019-03-29T15:24:04.500Z,69.75
2019-03-29T15:27:12.325Z,75.13
2019-03-29T15:30:29.606Z,72.31
2019-03-29T15:33:37.501Z,78.55
2019-03-29T15:36:45.244Z,78.46
2019-03-29T15:40:02.268Z,74.20
2019-03-29T15:43:09.951Z,95.45
2019-03-29T15:46:17.932Z,83.43
2019-03-29T15:49:35.111Z,82.50
2019-03-29T15:52:42.303Z,92.10
2019-03-29T15:55:50.102Z,87.17
2019-03-29T15:58:57.891Z,89.24
2019-03-29T16:02:15.193Z,87.74
2019-03-29T16:05:23.154Z,84.65
2019-03-29T16:08:31.076Z,82.45
2019-03-29T16:11:48.113Z,83.05
2019-03-29T16:14:55.974Z,100.00
2019-03-29T16:18:03.982Z,100.00
2019-03-29T16:21:11.828Z,93.39
2019-03-29T16:24:19.596Z,93.80
2019-03-29T16:27:36.758Z,99.97
2019-03-29T16:30:44.914Z,100.00
2019-03-29T16:33:52.764Z,100.00
2019-03-29T16:37:00.554Z,100.00
2019-03-29T16:40:07.043Z,100.00
2019-03-29T16:43:23.974Z,100.00
2019-03-29T16:46:32.083Z,100.00
2019-03-29T16:49:40.077Z,100.00
2019-03-29T16:52:47.933Z,100.00
2019-03-29T16:55:55.886Z,100.00
2019-03-29T16:59:03.678Z,100.00
2019-03-29T17:02:11.598Z,100.00
2019-03-29T17:05:28.852Z,100.00
2019-03-29T17:08:36.662Z,100.00
2019-03-29T17:11:44.440Z,100.00
2019-03-29T17:15:01.659Z,100.00
2019-03-29T17:18:09.333Z,100.00
2019-03-29T17:21:17.250Z,100.00
2019-03-29T17:24:34.501Z,100.00
2019-03-29T17:27:42.732Z,100.00
2019-03-29T17:30:55.748Z,100.00
2019-03-29T17:34:03.659Z,100.00
2019-03-29T17:37:20.794Z,100.00
2019-03-29T17:40:28.613Z,100.00
2019-03-29T17:43:36.378Z,100.00
2019-03-29T17:46:53.640Z,100.00
2019-03-29T17:50:01.390Z,100.00
2019-03-29T17:53:09.325Z,100.00
2019-03-29T17:56:26.856Z,100.00
2019-03-29T17:59:34.541Z,100.00
2019-03-29T18:02:42.555Z,100.00
2019-03-29T18:05:50.369Z,100.00
2019-03-29T18:08:58.295Z,100.00
2019-03-29T18:12:15.282Z,100.00
2019-03-29T18:15:23.298Z,100.00
2019-03-29T18:18:31.334Z,100.00
2019-03-29T18:21:39.098Z,100.00
2019-03-29T18:24:47.160Z,100.00
2019-03-29T18:28:04.063Z,100.00
2019-03-29T18:31:11.899Z,100.00
2019-03-29T18:34:19.816Z,100.00
2019-03-29T18:37:36.971Z,100.00
2019-03-29T18:40:44.821Z,100.00
2019-03-29T18:43:52.729Z,100.00
2019-03-29T18:47:09.677Z,100.00
2019-03-29T18:50:17.716Z,100.00
2019-03-29T18:53:25.989Z,100.00
2019-03-29T18:56:33.892Z,100.00
2019-03-29T18:59:51.247Z,100.00
2019-03-29T19:02:59.338Z,100.00
2019-03-29T19:06:07.192Z,100.00
2019-03-29T19:09:15.139Z,100.00
2019-03-29T19:12:22.966Z,100.00
2019-03-29T19:15:40.089Z,100.00
2019-03-29T19:18:48.007Z,100.00
2019-03-29T19:21:55.777Z,100.00
2019-03-29T19:25:12.946Z,100.00
2019-03-29T19:28:19.015Z,100.00
2019-03-29T19:31:26.866Z,100.00
2019-03-29T19:34:44.092Z,100.00
2019-03-29T19:37:52.173Z,100.00
2019-03-29T19:40:59.934Z,100.00
2019-03-29T19:44:07.861Z,100.00
2019-03-29T19:47:15.780Z,100.00
2019-03-29T19:50:32.767Z,100.00
2019-03-29T19:53:40.650Z,100.00
2019-03-29T19:56:48.550Z,100.00
2019-03-29T20:00:06.753Z,100.00
2019-03-29T20:03:23.960Z,100.00
2019-03-29T20:06:32.755Z,100.00
2019-03-29T20:09:42.036Z,100.00
2019-03-29T20:12:50.283Z,100.00
2019-03-29T20:15:58.209Z,100.00
2019-03-29T20:19:05.991Z,100.00
2019-03-29T20:22:23.155Z,100.00
2019-03-29T20:25:30.976Z,100.00
2019-03-29T20:28:38.938Z,100.00
2019-03-29T20:31:55.935Z,100.00
2019-03-29T20:35:03.887Z,100.00
2019-03-29T20:38:11.805Z,100.00
2019-03-29T20:41:28.814Z,100.00
2019-03-29T20:44:36.741Z,100.00
2019-03-29T20:47:44.980Z,100.00
2019-03-29T20:50:52.743Z,100.00
2019-03-29T20:54:00.679Z,100.00
2019-03-29T20:57:17.617Z,100.00
2019-03-29T21:00:25.980Z,100.00
2019-03-29T21:03:43.091Z,100.00
2019-03-29T21:06:51.099Z,100.00
2019-03-29T21:09:58.879Z,100.00
2019-03-29T21:13:15.954Z,100.00
2019-03-29T21:16:24.007Z,100.00
2019-03-29T21:19:31.868Z,100.00
2019-03-29T21:22:39.760Z,100.00
2019-03-29T21:25:47.595Z,100.00
2019-03-29T21:29:04.593Z,100.00
2019-03-29T21:32:12.441Z,100.00
2019-03-29T21:35:20.296Z,100.00
2019-03-29T21:38:28.664Z,100.00
2019-03-29T21:41:36.606Z,100.00
2019-03-29T21:44:53.476Z,100.00
2019-03-29T21:48:16.042Z,100.00
2019-03-29T21:51:10.970Z,100.00
2019-03-29T21:54:18.871Z,100.00
2019-03-29T21:57:26.718Z,100.00
2019-03-29T22:00:43.945Z,100.00
2019-03-29T22:03:51.887Z,100.00
2019-03-29T22:06:59.865Z,100.00
2019-03-29T22:10:08.472Z,100.00
2019-03-29T22:13:25.501Z,100.00
2019-03-29T22:16:32.035Z,100.00
2019-03-29T22:19:39.779Z,100.00
2019-03-29T22:22:56.602Z,100.00
2019-03-29T22:26:04.460Z,100.00
2019-03-29T22:29:13.089Z,100.00
2019-03-29T22:32:21.640Z,100.00
2019-03-29T22:35:29.334Z,100.00
2019-03-29T22:38:37.277Z,100.00
2019-03-29T22:41:45.300Z,100.00
2019-03-29T22:44:53.347Z,100.00
2019-03-29T22:48:10.258Z,100.00
2019-03-29T22:51:18.352Z,100.00
2019-03-29T22:54:26.171Z,100.00
2019-03-29T22:57:33.944Z,100.00
2019-03-29T23:00:45.268Z,100.00
2019-03-29T23:03:53.424Z,100.00
2019-03-29T23:07:01.272Z,100.00
2019-03-29T23:10:09.313Z,100.00
2019-03-29T23:13:17.145Z,100.00
2019-03-29T23:16:34.293Z,100.00
2019-03-29T23:19:41.947Z,100.00
2019-03-29T23:22:49.717Z,100.00
2019-03-29T23:25:57.448Z,100.00
2019-03-29T23:29:04.266Z,100.00
2019-03-29T23:32:21.279Z,100.00
2019-03-29T23:35:29.043Z,100.00
2019-03-29T23:38:36.861Z,100.00
2019-03-29T23:41:54.061Z,100.00
2019-03-29T23:45:01.912Z,100.00
2019-03-29T23:48:09.712Z,100.00
2019-03-29T23:51:27.224Z,100.00
2019-03-29T23:54:34.975Z,100.00
2019-03-29T23:57:42.935Z,100.00
